sensor_id;sensor_type;location;lat;lon;timestamp;pressure;altitude;pressure_sealevel;temperature
72236;BMP280;60146;52.498;13.462;2023-07-16T00:00:06;100493.16;;;24.47
72236;BMP280;60146;52.498;13.462;2023-07-16T00:02:33;100494.66;;;24.48
72236;BMP280;60146;52.498;13.462;2023-07-16T00:04:59;100490.84;;;24.45
72236;BMP280;60146;52.498;13.462;2023-07-16T00:07:24;100501.22;;;24.54
72236;BMP280;60146;52.498;13.462;2023-07-16T00:09:49;100490.50;;;24.54
72236;BMP280;60146;52.498;13.462;2023-07-16T00:12:15;100505.78;;;24.50
72236;BMP280;60146;52.498;13.462;2023-07-16T00:14:40;100513.06;;;24.49
72236;BMP280;60146;52.498;13.462;2023-07-16T00:17:06;100499.25;;;24.47
72236;BMP280;60146;52.498;13.462;2023-07-16T00:19:31;100500.03;;;24.45
72236;BMP280;60146;52.498;13.462;2023-07-16T00:21:56;100498.13;;;24.45
72236;BMP280;60146;52.498;13.462;2023-07-16T00:24:22;100507.31;;;24.51
72236;BMP280;60146;52.498;13.462;2023-07-16T00:26:47;100498.13;;;24.45
72236;BMP280;60146;52.498;13.462;2023-07-16T00:29:12;100498.50;;;24.47
72236;BMP280;60146;52.498;13.462;2023-07-16T00:31:38;100506.94;;;24.49
72236;BMP280;60146;52.498;13.462;2023-07-16T00:34:03;100510.00;;;24.51
72236;BMP280;60146;52.498;13.462;2023-07-16T00:36:28;100508.50;;;24.57
72236;BMP280;60146;52.498;13.462;2023-07-16T00:38:54;100515.38;;;24.64
72236;BMP280;60146;52.498;13.462;2023-07-16T00:41:19;100527.63;;;24.59
72236;BMP280;60146;52.498;13.462;2023-07-16T00:43:44;100545.25;;;24.56
72236;BMP280;60146;52.498;13.462;2023-07-16T00:46:10;100549.78;;;24.39
72236;BMP280;60146;52.498;13.462;2023-07-16T00:48:36;100558.59;;;24.32
72236;BMP280;60146;52.498;13.462;2023-07-16T00:51:02;100567.38;;;24.26
72236;BMP280;60146;52.498;13.462;2023-07-16T00:53:28;100584.59;;;24.28
72236;BMP280;60146;52.498;13.462;2023-07-16T00:55:54;100590.41;;;24.37
72236;BMP280;60146;52.498;13.462;2023-07-16T00:58:19;100605.69;;;24.33
72236;BMP280;60146;52.498;13.462;2023-07-16T01:00:44;100604.97;;;24.43
72236;BMP280;60146;52.498;13.462;2023-07-16T01:03:12;100621.06;;;24.46
72236;BMP280;60146;52.498;13.462;2023-07-16T01:08:10;100665.44;;;24.34
72236;BMP280;60146;52.498;13.462;2023-07-16T01:10:38;100696.00;;;24.23
72236;BMP280;60146;52.498;13.462;2023-07-16T01:13:04;100718.53;;;24.22
72236;BMP280;60146;52.498;13.462;2023-07-16T01:15:30;100726.97;;;24.20
72236;BMP280;60146;52.498;13.462;2023-07-16T01:17:55;100756.44;;;24.17
72236;BMP280;60146;52.498;13.462;2023-07-16T01:20:20;100798.16;;;24.14
72236;BMP280;60146;52.498;13.462;2023-07-16T01:23:06;100813.72;;;24.02
72236;BMP280;60146;52.498;13.462;2023-07-16T01:28:54;100826.34;;;23.63
72236;BMP280;60146;52.498;13.462;2023-07-16T01:31:23;100820.22;;;23.62
72236;BMP280;60146;52.498;13.462;2023-07-16T01:33:51;100835.06;;;23.56
72236;BMP280;60146;52.498;13.462;2023-07-16T01:36:18;100823.25;;;23.57
72236;BMP280;60146;52.498;13.462;2023-07-16T01:38:44;100831.69;;;23.63
72236;BMP280;60146;52.498;13.462;2023-07-16T01:41:10;100819.44;;;23.62
72236;BMP280;60146;52.498;13.462;2023-07-16T01:43:36;100807.25;;;23.64
72236;BMP280;60146;52.498;13.462;2023-07-16T01:46:01;100799.66;;;23.70
72236;BMP280;60146;52.498;13.462;2023-07-16T01:48:32;100808.16;;;23.78
72236;BMP280;60146;52.498;13.462;2023-07-16T01:50:58;100803.19;;;23.77
72236;BMP280;60146;52.498;13.462;2023-07-16T01:53:23;100797.00;;;23.73
72236;BMP280;60146;52.498;13.462;2023-07-16T01:55:49;100793.25;;;23.81
72236;BMP280;60146;52.498;13.462;2023-07-16T01:58:14;100792.56;;;23.87
72236;BMP280;60146;52.498;13.462;2023-07-16T02:00:40;100797.59;;;23.95
72236;BMP280;60146;52.498;13.462;2023-07-16T02:03:05;100800.72;;;24.01
72236;BMP280;60146;52.498;13.462;2023-07-16T02:05:30;100800.38;;;24.06
72236;BMP280;60146;52.498;13.462;2023-07-16T02:07:56;100806.13;;;24.04
72236;BMP280;60146;52.498;13.462;2023-07-16T02:10:21;100791.59;;;24.12
72236;BMP280;60146;52.498;13.462;2023-07-16T02:12:46;100782.47;;;24.20
72236;BMP280;60146;52.498;13.462;2023-07-16T02:15:12;100782.53;;;24.23
72236;BMP280;60146;52.498;13.462;2023-07-16T02:17:37;100764.59;;;24.34
72236;BMP280;60146;52.498;13.462;2023-07-16T02:20:03;100765.78;;;24.40
72236;BMP280;60146;52.498;13.462;2023-07-16T02:22:31;100763.44;;;24.35
72236;BMP280;60146;52.498;13.462;2023-07-16T02:24:57;100797.41;;;24.17
72236;BMP280;60146;52.498;13.462;2023-07-16T02:27:22;100792.34;;;24.09
72236;BMP280;60146;52.498;13.462;2023-07-16T02:29:47;100812.91;;;23.98
72236;BMP280;60146;52.498;13.462;2023-07-16T02:32:13;100816.56;;;23.77
72236;BMP280;60146;52.498;13.462;2023-07-16T02:34:38;100835.44;;;23.55
72236;BMP280;60146;52.498;13.462;2023-07-16T02:37:04;100831.44;;;23.39
72236;BMP280;60146;52.498;13.462;2023-07-16T02:39:29;100816.81;;;23.30
72236;BMP280;60146;52.498;13.462;2023-07-16T02:41:54;100805.25;;;23.22
72236;BMP280;60146;52.498;13.462;2023-07-16T02:44:20;100801.69;;;23.12
72236;BMP280;60146;52.498;13.462;2023-07-16T02:46:45;100808.94;;;23.11
72236;BMP280;60146;52.498;13.462;2023-07-16T02:49:10;100815.72;;;23.05
72236;BMP280;60146;52.498;13.462;2023-07-16T02:51:36;100824.13;;;23.04
72236;BMP280;60146;52.498;13.462;2023-07-16T02:54:01;100830.00;;;22.87
72236;BMP280;60146;52.498;13.462;2023-07-16T02:56:27;100837.78;;;22.70
72236;BMP280;60146;52.498;13.462;2023-07-16T02:58:52;100850.91;;;22.53
72236;BMP280;60146;52.498;13.462;2023-07-16T03:01:18;100865.03;;;22.54
72236;BMP280;60146;52.498;13.462;2023-07-16T03:03:43;100882.00;;;22.43
72236;BMP280;60146;52.498;13.462;2023-07-16T03:06:08;100875.78;;;22.35
72236;BMP280;60146;52.498;13.462;2023-07-16T03:08:34;100861.31;;;22.36
72236;BMP280;60146;52.498;13.462;2023-07-16T03:10:59;100858.25;;;22.38
72236;BMP280;60146;52.498;13.462;2023-07-16T03:13:25;100846.72;;;22.34
72236;BMP280;60146;52.498;13.462;2023-07-16T03:15:50;100839.53;;;22.38
72236;BMP280;60146;52.498;13.462;2023-07-16T03:18:18;100835.88;;;22.46
72236;BMP280;60146;52.498;13.462;2023-07-16T03:20:43;100824.41;;;22.45
72236;BMP280;60146;52.498;13.462;2023-07-16T03:23:08;100809.53;;;22.47
72236;BMP280;60146;52.498;13.462;2023-07-16T03:25:34;100820.97;;;22.45
72236;BMP280;60146;52.498;13.462;2023-07-16T03:27:59;100826.22;;;22.41
72236;BMP280;60146;52.498;13.462;2023-07-16T03:30:25;100806.75;;;22.41
72236;BMP280;60146;52.498;13.462;2023-07-16T03:32:50;100810.97;;;22.42
72236;BMP280;60146;52.498;13.462;2023-07-16T03:35:15;100812.53;;;22.43
72236;BMP280;60146;52.498;13.462;2023-07-16T03:37:41;100810.63;;;22.43
72236;BMP280;60146;52.498;13.462;2023-07-16T03:40:16;100824.69;;;22.40
72236;BMP280;60146;52.498;13.462;2023-07-16T03:42:43;100839.78;;;22.29
72236;BMP280;60146;52.498;13.462;2023-07-16T03:45:09;100827.16;;;22.27
72236;BMP280;60146;52.498;13.462;2023-07-16T03:47:35;100779.44;;;22.25
72236;BMP280;60146;52.498;13.462;2023-07-16T03:50:00;100792.41;;;22.27
72236;BMP280;60146;52.498;13.462;2023-07-16T03:52:26;100799.47;;;22.38
72236;BMP280;60146;52.498;13.462;2023-07-16T03:54:52;100801.69;;;22.32
72236;BMP280;60146;52.498;13.462;2023-07-16T03:57:17;100803.31;;;22.40
72236;BMP280;60146;52.498;13.462;2023-07-16T03:59:43;100806.25;;;22.32
72236;BMP280;60146;52.498;13.462;2023-07-16T04:02:08;100815.69;;;22.26
72236;BMP280;60146;52.498;13.462;2023-07-16T04:04:34;100822.66;;;22.34
72236;BMP280;60146;52.498;13.462;2023-07-16T04:06:59;100821.63;;;22.38
72236;BMP280;60146;52.498;13.462;2023-07-16T04:09:24;100829.91;;;22.33
72236;BMP280;60146;52.498;13.462;2023-07-16T04:11:50;100835.53;;;22.25
72236;BMP280;60146;52.498;13.462;2023-07-16T04:14:15;100838.31;;;22.32
72236;BMP280;60146;52.498;13.462;2023-07-16T04:16:40;100827.72;;;22.39
72236;BMP280;60146;52.498;13.462;2023-07-16T04:19:06;100825.88;;;22.43
72236;BMP280;60146;52.498;13.462;2023-07-16T04:21:32;100807.88;;;22.36
72236;BMP280;60146;52.498;13.462;2023-07-16T04:23:57;100820.97;;;22.45
72236;BMP280;60146;52.498;13.462;2023-07-16T04:26:23;100832.34;;;22.42
72236;BMP280;60146;52.498;13.462;2023-07-16T04:28:48;100850.63;;;22.36
72236;BMP280;60146;52.498;13.462;2023-07-16T04:31:14;100842.34;;;22.45
72236;BMP280;60146;52.498;13.462;2023-07-16T04:33:39;100856.78;;;22.44
72236;BMP280;60146;52.498;13.462;2023-07-16T04:36:05;100860.53;;;22.36
72236;BMP280;60146;52.498;13.462;2023-07-16T04:38:30;100850.13;;;22.31
72236;BMP280;60146;52.498;13.462;2023-07-16T04:40:55;100859.59;;;22.25
72236;BMP280;60146;52.498;13.462;2023-07-16T04:43:21;100865.31;;;22.27
72236;BMP280;60146;52.498;13.462;2023-07-16T04:45:46;100864.94;;;22.25
72236;BMP280;60146;52.498;13.462;2023-07-16T04:48:12;100866.03;;;22.24
72236;BMP280;60146;52.498;13.462;2023-07-16T04:50:38;100864.06;;;22.21
72236;BMP280;60146;52.498;13.462;2023-07-16T04:53:04;100865.13;;;22.39
72236;BMP280;60146;52.498;13.462;2023-07-16T04:55:34;100882.72;;;22.40
72236;BMP280;60146;52.498;13.462;2023-07-16T04:58:00;100894.09;;;22.37
72236;BMP280;60146;52.498;13.462;2023-07-16T05:00:26;100889.53;;;22.37
72236;BMP280;60146;52.498;13.462;2023-07-16T05:02:53;100885.75;;;22.38
72236;BMP280;60146;52.498;13.462;2023-07-16T05:05:19;100883.06;;;22.38
72236;BMP280;60146;52.498;13.462;2023-07-16T05:07:44;100894.19;;;22.44
72236;BMP280;60146;52.498;13.462;2023-07-16T05:10:10;100915.84;;;22.57
72236;BMP280;60146;52.498;13.462;2023-07-16T05:12:35;100926.59;;;22.61
72236;BMP280;60146;52.498;13.462;2023-07-16T05:15:00;100928.50;;;22.60
72236;BMP280;60146;52.498;13.462;2023-07-16T05:17:26;100922.72;;;22.58
72236;BMP280;60146;52.498;13.462;2023-07-16T05:19:51;100932.72;;;22.61
72236;BMP280;60146;52.498;13.462;2023-07-16T05:22:17;100935.50;;;22.68
72236;BMP280;60146;52.498;13.462;2023-07-16T05:24:42;100921.31;;;22.89
72236;BMP280;60146;52.498;13.462;2023-07-16T05:27:07;100905.22;;;22.86
72236;BMP280;60146;52.498;13.462;2023-07-16T05:29:33;100907.34;;;22.99
72236;BMP280;60146;52.498;13.462;2023-07-16T05:31:58;100893.41;;;23.12
72236;BMP280;60146;52.498;13.462;2023-07-16T05:34:23;100893.13;;;23.20
72236;BMP280;60146;52.498;13.462;2023-07-16T05:36:49;100892.00;;;23.50
72236;BMP280;60146;52.498;13.462;2023-07-16T05:39:15;100897.47;;;23.60
72236;BMP280;60146;52.498;13.462;2023-07-16T05:41:40;100888.44;;;23.75
72236;BMP280;60146;52.498;13.462;2023-07-16T05:44:06;100899.59;;;23.77
72236;BMP280;60146;52.498;13.462;2023-07-16T05:46:33;100902.19;;;23.70
72236;BMP280;60146;52.498;13.462;2023-07-16T05:48:58;100916.47;;;23.81
72236;BMP280;60146;52.498;13.462;2023-07-16T05:51:23;100917.72;;;23.93
72236;BMP280;60146;52.498;13.462;2023-07-16T05:53:49;100926.91;;;23.92
72236;BMP280;60146;52.498;13.462;2023-07-16T05:56:14;100910.78;;;23.86
72236;BMP280;60146;52.498;13.462;2023-07-16T05:58:40;100903.75;;;23.74
72236;BMP280;60146;52.498;13.462;2023-07-16T06:01:06;100909.91;;;23.78
72236;BMP280;60146;52.498;13.462;2023-07-16T06:03:31;100915.00;;;23.87
72236;BMP280;60146;52.498;13.462;2023-07-16T06:05:57;100920.63;;;23.78
72236;BMP280;60146;52.498;13.462;2023-07-16T06:08:22;100912.22;;;23.76
72236;BMP280;60146;52.498;13.462;2023-07-16T06:10:50;100919.91;;;23.81
72236;BMP280;60146;52.498;13.462;2023-07-16T06:13:15;100926.41;;;23.80
72236;BMP280;60146;52.498;13.462;2023-07-16T06:15:40;100914.53;;;23.78
72236;BMP280;60146;52.498;13.462;2023-07-16T06:18:06;100908.16;;;23.92
72236;BMP280;60146;52.498;13.462;2023-07-16T06:20:31;100898.38;;;24.07
72236;BMP280;60146;52.498;13.462;2023-07-16T06:22:57;100931.59;;;24.02
72236;BMP280;60146;52.498;13.462;2023-07-16T06:25:22;100922.28;;;23.90
72236;BMP280;60146;52.498;13.462;2023-07-16T06:27:47;100914.63;;;23.91
72236;BMP280;60146;52.498;13.462;2023-07-16T06:30:13;100921.31;;;24.04
72236;BMP280;60146;52.498;13.462;2023-07-16T06:32:38;100932.03;;;24.04
72236;BMP280;60146;52.498;13.462;2023-07-16T06:35:04;100928.63;;;24.10
72236;BMP280;60146;52.498;13.462;2023-07-16T06:37:29;100937.81;;;24.13
72236;BMP280;60146;52.498;13.462;2023-07-16T06:39:54;100931.19;;;24.39
72236;BMP280;60146;52.498;13.462;2023-07-16T06:42:20;100926.84;;;24.25
72236;BMP280;60146;52.498;13.462;2023-07-16T06:44:45;100933.53;;;24.41
72236;BMP280;60146;52.498;13.462;2023-07-16T06:47:11;100922.84;;;24.47
72236;BMP280;60146;52.498;13.462;2023-07-16T06:49:36;100920.69;;;24.63
72236;BMP280;60146;52.498;13.462;2023-07-16T06:52:01;100934.50;;;24.68
72236;BMP280;60146;52.498;13.462;2023-07-16T06:54:29;100937.59;;;24.74
72236;BMP280;60146;52.498;13.462;2023-07-16T06:56:55;100936.84;;;24.77
72236;BMP280;60146;52.498;13.462;2023-07-16T06:59:20;100935.38;;;24.79
72236;BMP280;60146;52.498;13.462;2023-07-16T07:01:45;100951.59;;;24.99
72236;BMP280;60146;52.498;13.462;2023-07-16T07:04:11;100941.72;;;25.14
72236;BMP280;60146;52.498;13.462;2023-07-16T07:06:36;100942.25;;;25.36
72236;BMP280;60146;52.498;13.462;2023-07-16T07:09:02;100931.09;;;25.37
72236;BMP280;60146;52.498;13.462;2023-07-16T07:11:27;100944.97;;;25.53
72236;BMP280;60146;52.498;13.462;2023-07-16T07:13:52;100937.41;;;25.82
72236;BMP280;60146;52.498;13.462;2023-07-16T07:16:18;100952.81;;;26.19
72236;BMP280;60146;52.498;13.462;2023-07-16T07:18:44;100943.59;;;26.03
72236;BMP280;60146;52.498;13.462;2023-07-16T07:21:10;100950.47;;;25.97
72236;BMP280;60146;52.498;13.462;2023-07-16T07:23:35;100953.56;;;26.06
72236;BMP280;60146;52.498;13.462;2023-07-16T07:26:01;100949.78;;;26.31
72236;BMP280;60146;52.498;13.462;2023-07-16T07:28:27;100958.19;;;26.19
72236;BMP280;60146;52.498;13.462;2023-07-16T07:30:52;100950.91;;;26.16
72236;BMP280;60146;52.498;13.462;2023-07-16T07:33:17;100960.53;;;26.31
72236;BMP280;60146;52.498;13.462;2023-07-16T07:35:43;100965.06;;;25.83
72236;BMP280;60146;52.498;13.462;2023-07-16T07:38:08;100962.78;;;26.19
72236;BMP280;60146;52.498;13.462;2023-07-16T07:40:33;100963.19;;;26.44
72236;BMP280;60146;52.498;13.462;2023-07-16T07:42:59;100960.13;;;26.42
72236;BMP280;60146;52.498;13.462;2023-07-16T07:45:25;100967.44;;;26.52
72236;BMP280;60146;52.498;13.462;2023-07-16T07:47:51;100972.03;;;26.55
72236;BMP280;60146;52.498;13.462;2023-07-16T07:50:16;100977.78;;;26.81
72236;BMP280;60146;52.498;13.462;2023-07-16T07:52:42;100966.59;;;27.03
72236;BMP280;60146;52.498;13.462;2023-07-16T07:55:07;100965.78;;;27.26
72236;BMP280;60146;52.498;13.462;2023-07-16T07:57:33;100968.78;;;27.38
72236;BMP280;60146;52.498;13.462;2023-07-16T07:59:58;100960.69;;;27.45
72236;BMP280;60146;52.498;13.462;2023-07-16T08:02:24;100963.09;;;27.19
72236;BMP280;60146;52.498;13.462;2023-07-16T08:04:51;100971.63;;;27.01
72236;BMP280;60146;52.498;13.462;2023-07-16T08:07:17;100974.34;;;26.74
72236;BMP280;60146;52.498;13.462;2023-07-16T08:09:42;100980.50;;;26.54
72236;BMP280;60146;52.498;13.462;2023-07-16T08:12:08;100987.41;;;26.51
72236;BMP280;60146;52.498;13.462;2023-07-16T08:14:33;100995.47;;;26.38
72236;BMP280;60146;52.498;13.462;2023-07-16T08:16:59;100988.59;;;26.40
72236;BMP280;60146;52.498;13.462;2023-07-16T08:19:24;100980.84;;;27.00
72236;BMP280;60146;52.498;13.462;2023-07-16T08:21:49;100977.59;;;27.52
72236;BMP280;60146;52.498;13.462;2023-07-16T08:24:15;100989.22;;;27.22
72236;BMP280;60146;52.498;13.462;2023-07-16T08:26:40;100988.84;;;27.13
72236;BMP280;60146;52.498;13.462;2023-07-16T08:29:06;100997.38;;;27.09
72236;BMP280;60146;52.498;13.462;2023-07-16T08:31:31;101003.91;;;26.94
72236;BMP280;60146;52.498;13.462;2023-07-16T08:33:56;101000.84;;;26.85
72236;BMP280;60146;52.498;13.462;2023-07-16T08:36:22;101002.41;;;26.69
72236;BMP280;60146;52.498;13.462;2023-07-16T08:38:47;100995.88;;;26.67
72236;BMP280;60146;52.498;13.462;2023-07-16T08:41:14;100994.69;;;26.92
72236;BMP280;60146;52.498;13.462;2023-07-16T08:43:40;100997.75;;;27.00
72236;BMP280;60146;52.498;13.462;2023-07-16T08:46:05;101015.03;;;27.23
72236;BMP280;60146;52.498;13.462;2023-07-16T08:48:31;101008.78;;;27.40
72236;BMP280;60146;52.498;13.462;2023-07-16T08:50:58;101009.91;;;27.56
72236;BMP280;60146;52.498;13.462;2023-07-16T08:53:24;101006.59;;;28.01
72236;BMP280;60146;52.498;13.462;2023-07-16T08:55:49;101002.81;;;28.84
72236;BMP280;60146;52.498;13.462;2023-07-16T08:58:15;100998.03;;;29.28
72236;BMP280;60146;52.498;13.462;2023-07-16T09:00:44;100992.94;;;29.04
72236;BMP280;60146;52.498;13.462;2023-07-16T09:03:13;100999.22;;;28.94
72236;BMP280;60146;52.498;13.462;2023-07-16T09:05:39;100998.88;;;28.92
72236;BMP280;60146;52.498;13.462;2023-07-16T09:08:05;101010.22;;;29.97
72236;BMP280;60146;52.498;13.462;2023-07-16T09:10:31;101002.66;;;30.34
72236;BMP280;60146;52.498;13.462;2023-07-16T09:12:58;101006.59;;;30.29
72236;BMP280;60146;52.498;13.462;2023-07-16T09:15:24;101012.72;;;30.55
72236;BMP280;60146;52.498;13.462;2023-07-16T09:17:49;101019.25;;;30.99
72236;BMP280;60146;52.498;13.462;2023-07-16T09:20:16;101005.34;;;32.01
72236;BMP280;60146;52.498;13.462;2023-07-16T09:22:42;101000.06;;;32.68
72236;BMP280;60146;52.498;13.462;2023-07-16T09:25:08;100996.72;;;33.53
72236;BMP280;60146;52.498;13.462;2023-07-16T09:27:33;100998.03;;;34.18
72236;BMP280;60146;52.498;13.462;2023-07-16T09:29:59;101000.78;;;34.80
72236;BMP280;60146;52.498;13.462;2023-07-16T09:32:38;100992.38;;;34.45
72236;BMP280;60146;52.498;13.462;2023-07-16T09:35:10;100999.28;;;34.58
72236;BMP280;60146;52.498;13.462;2023-07-16T09:37:38;101002.22;;;35.23
72236;BMP280;60146;52.498;13.462;2023-07-16T09:40:07;101002.63;;;36.15
72236;BMP280;60146;52.498;13.462;2023-07-16T09:42:54;101007.59;;;35.91
72236;BMP280;60146;52.498;13.462;2023-07-16T09:45:20;101001.44;;;35.52
72236;BMP280;60146;52.498;13.462;2023-07-16T09:47:46;101002.69;;;35.21
72236;BMP280;60146;52.498;13.462;2023-07-16T09:50:11;101010.97;;;34.26
72236;BMP280;60146;52.498;13.462;2023-07-16T09:52:37;101011.72;;;33.93
72236;BMP280;60146;52.498;13.462;2023-07-16T09:55:05;101016.53;;;33.53
72236;BMP280;60146;52.498;13.462;2023-07-16T09:57:38;101020.06;;;34.11
72236;BMP280;60146;52.498;13.462;2023-07-16T10:00:09;101012.44;;;35.01
72236;BMP280;60146;52.498;13.462;2023-07-16T10:02:41;101013.22;;;36.40
72236;BMP280;60146;52.498;13.462;2023-07-16T10:05:17;101017.72;;;36.69
72236;BMP280;60146;52.498;13.462;2023-07-16T10:07:49;101007.41;;;37.44
72236;BMP280;60146;52.498;13.462;2023-07-16T10:10:15;101013.50;;;36.68
72236;BMP280;60146;52.498;13.462;2023-07-16T10:12:42;101030.78;;;35.78
72236;BMP280;60146;52.498;13.462;2023-07-16T10:15:08;101029.66;;;35.49
72236;BMP280;60146;52.498;13.462;2023-07-16T10:17:33;101025.44;;;35.74
72236;BMP280;60146;52.498;13.462;2023-07-16T10:24:58;101019.88;;;37.91
72236;BMP280;60146;52.498;13.462;2023-07-16T10:27:27;101007.44;;;37.36
72236;BMP280;60146;52.498;13.462;2023-07-16T10:29:53;101013.84;;;38.01
72236;BMP280;60146;52.498;13.462;2023-07-16T10:32:20;101025.56;;;38.53
72236;BMP280;60146;52.498;13.462;2023-07-16T10:34:45;101023.03;;;37.75
72236;BMP280;60146;52.498;13.462;2023-07-16T10:37:11;101019.28;;;36.61
72236;BMP280;60146;52.498;13.462;2023-07-16T10:39:46;101023.16;;;36.86
72236;BMP280;60146;52.498;13.462;2023-07-16T10:42:11;101017.25;;;37.51
72236;BMP280;60146;52.498;13.462;2023-07-16T10:44:36;101017.41;;;38.58
72236;BMP280;60146;52.498;13.462;2023-07-16T10:47:02;101025.91;;;39.55
72236;BMP280;60146;52.498;13.462;2023-07-16T10:49:27;101030.19;;;39.42
72236;BMP280;60146;52.498;13.462;2023-07-16T10:51:53;101030.19;;;38.61
72236;BMP280;60146;52.498;13.462;2023-07-16T10:54:20;101031.84;;;36.76
72236;BMP280;60146;52.498;13.462;2023-07-16T10:56:45;101029.22;;;34.70
72236;BMP280;60146;52.498;13.462;2023-07-16T10:59:12;101039.91;;;33.99
72236;BMP280;60146;52.498;13.462;2023-07-16T11:01:38;101041.16;;;32.70
72236;BMP280;60146;52.498;13.462;2023-07-16T11:04:07;101029.34;;;32.18
72236;BMP280;60146;52.498;13.462;2023-07-16T11:06:33;101045.09;;;31.22
72236;BMP280;60146;52.498;13.462;2023-07-16T11:09:09;101038.56;;;32.20
72236;BMP280;60146;52.498;13.462;2023-07-16T11:11:34;101049.84;;;31.88
72236;BMP280;60146;52.498;13.462;2023-07-16T11:14:00;101045.59;;;31.18
72236;BMP280;60146;52.498;13.462;2023-07-16T11:16:25;101045.63;;;32.33
72236;BMP280;60146;52.498;13.462;2023-07-16T11:18:51;101038.91;;;32.81
72236;BMP280;60146;52.498;13.462;2023-07-16T11:21:18;101049.72;;;34.42
72236;BMP280;60146;52.498;13.462;2023-07-16T11:23:45;101048.34;;;35.68
72236;BMP280;60146;52.498;13.462;2023-07-16T11:26:10;101046.31;;;36.42
72236;BMP280;60146;52.498;13.462;2023-07-16T11:28:40;101043.16;;;35.23
72236;BMP280;60146;52.498;13.462;2023-07-16T11:31:15;101038.19;;;34.80
72236;BMP280;60146;52.498;13.462;2023-07-16T11:33:46;101035.44;;;33.93
72236;BMP280;60146;52.498;13.462;2023-07-16T11:36:12;101042.44;;;33.70
72236;BMP280;60146;52.498;13.462;2023-07-16T11:38:38;101049.34;;;32.54
72236;BMP280;60146;52.498;13.462;2023-07-16T11:41:04;101026.44;;;32.24
72236;BMP280;60146;52.498;13.462;2023-07-16T11:43:36;101031.28;;;31.86
72236;BMP280;60146;52.498;13.462;2023-07-16T11:46:14;101039.94;;;31.47
72236;BMP280;60146;52.498;13.462;2023-07-16T11:48:41;101048.88;;;32.13
72236;BMP280;60146;52.498;13.462;2023-07-16T11:51:06;101043.16;;;34.19
72236;BMP280;60146;52.498;13.462;2023-07-16T11:53:31;101038.81;;;35.81
72236;BMP280;60146;52.498;13.462;2023-07-16T11:55:57;101029.22;;;36.90
72236;BMP280;60146;52.498;13.462;2023-07-16T11:58:22;101051.56;;;37.38
72236;BMP280;60146;52.498;13.462;2023-07-16T12:00:47;101031.66;;;36.79
72236;BMP280;60146;52.498;13.462;2023-07-16T12:03:13;101042.47;;;36.83
72236;BMP280;60146;52.498;13.462;2023-07-16T12:05:38;101012.75;;;38.36
72236;BMP280;60146;52.498;13.462;2023-07-16T12:08:04;101022.03;;;38.66
72236;BMP280;60146;52.498;13.462;2023-07-16T12:10:29;101023.66;;;39.20
72236;BMP280;60146;52.498;13.462;2023-07-16T12:12:55;101008.59;;;39.68
72236;BMP280;60146;52.498;13.462;2023-07-16T12:15:20;101012.59;;;37.88
72236;BMP280;60146;52.498;13.462;2023-07-16T12:17:45;101023.16;;;38.46
72236;BMP280;60146;52.498;13.462;2023-07-16T12:20:11;101030.06;;;37.13
72236;BMP280;60146;52.498;13.462;2023-07-16T12:22:36;101024.19;;;37.83
72236;BMP280;60146;52.498;13.462;2023-07-16T12:25:02;101019.41;;;37.70
72236;BMP280;60146;52.498;13.462;2023-07-16T12:27:27;101029.53;;;36.92
72236;BMP280;60146;52.498;13.462;2023-07-16T12:29:53;101013.97;;;37.07
72236;BMP280;60146;52.498;13.462;2023-07-16T12:32:18;101032.16;;;36.69
72236;BMP280;60146;52.498;13.462;2023-07-16T12:34:45;101035.91;;;37.38
72236;BMP280;60146;52.498;13.462;2023-07-16T12:37:10;101053.19;;;37.04
72236;BMP280;60146;52.498;13.462;2023-07-16T12:39:36;101046.16;;;37.20
72236;BMP280;60146;52.498;13.462;2023-07-16T12:42:01;101039.47;;;36.81
72236;BMP280;60146;52.498;13.462;2023-07-16T12:44:26;101031.19;;;38.21
72236;BMP280;60146;52.498;13.462;2023-07-16T12:46:52;101039.06;;;37.91
72236;BMP280;60146;52.498;13.462;2023-07-16T12:49:18;101034.78;;;37.90
72236;BMP280;60146;52.498;13.462;2023-07-16T12:51:43;101033.88;;;38.58
72236;BMP280;60146;52.498;13.462;2023-07-16T12:54:11;101041.28;;;36.31
72236;BMP280;60146;52.498;13.462;2023-07-16T12:56:36;101037.50;;;36.12
72236;BMP280;60146;52.498;13.462;2023-07-16T12:59:02;101030.19;;;36.70
72236;BMP280;60146;52.498;13.462;2023-07-16T13:01:33;101031.31;;;37.67
72236;BMP280;60146;52.498;13.462;2023-07-16T13:03:58;101046.84;;;38.71
72236;BMP280;60146;52.498;13.462;2023-07-16T13:06:24;101014.22;;;37.72
72236;BMP280;60146;52.498;13.462;2023-07-16T13:08:49;101023.53;;;37.43
72236;BMP280;60146;52.498;13.462;2023-07-16T13:11:15;101028.28;;;38.67
72236;BMP280;60146;52.498;13.462;2023-07-16T13:13:40;101025.78;;;37.21
72236;BMP280;60146;52.498;13.462;2023-07-16T13:16:07;101031.59;;;37.06
72236;BMP280;60146;52.498;13.462;2023-07-16T13:18:32;101033.81;;;38.02
72236;BMP280;60146;52.498;13.462;2023-07-16T13:20:58;101034.19;;;37.09
72236;BMP280;60146;52.498;13.462;2023-07-16T13:23:23;101028.41;;;37.93
72236;BMP280;60146;52.498;13.462;2023-07-16T13:25:48;101035.63;;;39.03
72236;BMP280;60146;52.498;13.462;2023-07-16T13:28:16;101036.38;;;38.19
72236;BMP280;60146;52.498;13.462;2023-07-16T13:30:41;101033.34;;;38.17
72236;BMP280;60146;52.498;13.462;2023-07-16T13:33:07;101055.81;;;37.93
72236;BMP280;60146;52.498;13.462;2023-07-16T13:35:32;101040.53;;;37.55
72236;BMP280;60146;52.498;13.462;2023-07-16T13:37:57;101051.78;;;36.59
72236;BMP280;60146;52.498;13.462;2023-07-16T13:40:23;101044.72;;;37.02
72236;BMP280;60146;52.498;13.462;2023-07-16T13:42:48;101047.84;;;35.52
72236;BMP280;60146;52.498;13.462;2023-07-16T13:45:14;101058.53;;;34.46
72236;BMP280;60146;52.498;13.462;2023-07-16T13:47:39;101051.88;;;35.77